sensor_id;sensor_type;location;lat;lon;timestamp;P1;durP1;ratioP1;P2;durP2;ratioP2
13720;SDS011;6932;51.438;5.470;2023-03-23T00:00:08;3.23;;;2.00;;
13720;SDS011;6932;51.438;5.470;2023-03-23T00:02:35;3.63;;;2.17;;
13720;SDS011;6932;51.438;5.470;2023-03-23T00:05:03;3.23;;;2.10;;
13720;SDS011;6932;51.438;5.470;2023-03-23T00:07:32;3.77;;;2.10;;
13720;SDS011;6932;51.438;5.470;2023-03-23T00:10:00;4.17;;;2.20;;
13720;SDS011;6932;51.438;5.470;2023-03-23T00:12:28;4.00;;;2.40;;
13720;SDS011;6932;51.438;5.470;2023-03-23T00:17:29;3.23;;;2.13;;
13720;SDS011;6932;51.438;5.470;2023-03-23T00:20:00;3.33;;;2.30;;
13720;SDS011;6932;51.438;5.470;2023-03-23T00:22:30;5.40;;;2.20;;
13720;SDS011;6932;51.438;5.470;2023-03-23T00:25:02;4.03;;;2.40;;
13720;SDS011;6932;51.438;5.470;2023-03-23T00:27:33;3.17;;;2.30;;
13720;SDS011;6932;51.438;5.470;2023-03-23T00:29:59;5.10;;;2.20;;
13720;SDS011;6932;51.438;5.470;2023-03-23T00:32:25;4.77;;;2.40;;
13720;SDS011;6932;51.438;5.470;2023-03-23T00:34:52;2.80;;;2.10;;
13720;SDS011;6932;51.438;5.470;2023-03-23T00:37:19;4.00;;;2.40;;
13720;SDS011;6932;51.438;5.470;2023-03-23T00:39:46;3.60;;;2.30;;
13720;SDS011;6932;51.438;5.470;2023-03-23T00:42:13;3.87;;;2.30;;
13720;SDS011;6932;51.438;5.470;2023-03-23T00:44:41;4.53;;;2.30;;
13720;SDS011;6932;51.438;5.470;2023-03-23T00:47:08;3.10;;;2.20;;
13720;SDS011;6932;51.438;5.470;2023-03-23T00:49:36;4.97;;;2.13;;
13720;SDS011;6932;51.438;5.470;2023-03-23T00:52:03;5.33;;;2.30;;
13720;SDS011;6932;51.438;5.470;2023-03-23T00:54:32;3.10;;;2.30;;
13720;SDS011;6932;51.438;5.470;2023-03-23T00:56:59;3.50;;;2.33;;
13720;SDS011;6932;51.438;5.470;2023-03-23T00:59:26;2.77;;;2.20;;
13720;SDS011;6932;51.438;5.470;2023-03-23T01:01:52;3.20;;;2.10;;
13720;SDS011;6932;51.438;5.470;2023-03-23T01:04:17;3.67;;;2.10;;
13720;SDS011;6932;51.438;5.470;2023-03-23T01:06:44;5.43;;;2.43;;
13720;SDS011;6932;51.438;5.470;2023-03-23T01:09:15;3.83;;;2.30;;
13720;SDS011;6932;51.438;5.470;2023-03-23T01:11:44;4.17;;;2.43;;
13720;SDS011;6932;51.438;5.470;2023-03-23T01:14:11;3.70;;;2.40;;
13720;SDS011;6932;51.438;5.470;2023-03-23T01:31:33;3.53;;;2.40;;
13720;SDS011;6932;51.438;5.470;2023-03-23T01:34:01;3.37;;;2.30;;
13720;SDS011;6932;51.438;5.470;2023-03-23T01:36:28;4.40;;;2.33;;
13720;SDS011;6932;51.438;5.470;2023-03-23T01:38:57;3.50;;;2.30;;
13720;SDS011;6932;51.438;5.470;2023-03-23T01:41:27;3.33;;;2.03;;
13720;SDS011;6932;51.438;5.470;2023-03-23T01:43:54;4.37;;;2.50;;
13720;SDS011;6932;51.438;5.470;2023-03-23T01:46:21;2.80;;;2.20;;
13720;SDS011;6932;51.438;5.470;2023-03-23T01:48:47;3.60;;;2.30;;
13720;SDS011;6932;51.438;5.470;2023-03-23T02:02:27;4.47;;;2.53;;
13720;SDS011;6932;51.438;5.470;2023-03-23T02:04:55;3.90;;;2.37;;
13720;SDS011;6932;51.438;5.470;2023-03-23T02:07:27;3.77;;;2.37;;
13720;SDS011;6932;51.438;5.470;2023-03-23T02:09:53;3.20;;;2.30;;
13720;SDS011;6932;51.438;5.470;2023-03-23T02:12:19;3.20;;;2.20;;
13720;SDS011;6932;51.438;5.470;2023-03-23T02:14:45;2.93;;;2.10;;
13720;SDS011;6932;51.438;5.470;2023-03-23T02:17:23;5.20;;;2.50;;
13720;SDS011;6932;51.438;5.470;2023-03-23T02:26:03;3.63;;;2.30;;
13720;SDS011;6932;51.438;5.470;2023-03-23T02:39:56;4.50;;;2.40;;
13720;SDS011;6932;51.438;5.470;2023-03-23T02:42:36;3.07;;;2.30;;
13720;SDS011;6932;51.438;5.470;2023-03-23T02:45:07;3.80;;;2.27;;
13720;SDS011;6932;51.438;5.470;2023-03-23T02:47:38;3.57;;;2.20;;
13720;SDS011;6932;51.438;5.470;2023-03-23T02:50:07;4.23;;;2.37;;
13720;SDS011;6932;51.438;5.470;2023-03-23T02:52:39;3.07;;;2.37;;
13720;SDS011;6932;51.438;5.470;2023-03-23T02:55:08;4.07;;;2.37;;
13720;SDS011;6932;51.438;5.470;2023-03-23T02:57:36;4.23;;;2.57;;
13720;SDS011;6932;51.438;5.470;2023-03-23T03:00:04;4.17;;;2.40;;
13720;SDS011;6932;51.438;5.470;2023-03-23T03:02:35;3.37;;;2.50;;
13720;SDS011;6932;51.438;5.470;2023-03-23T03:18:47;4.57;;;2.57;;
13720;SDS011;6932;51.438;5.470;2023-03-23T03:21:47;3.23;;;2.17;;
13720;SDS011;6932;51.438;5.470;2023-03-23T03:24:17;3.83;;;2.60;;
13720;SDS011;6932;51.438;5.470;2023-03-23T03:26:46;3.53;;;2.30;;
13720;SDS011;6932;51.438;5.470;2023-03-23T03:29:18;4.20;;;2.30;;
13720;SDS011;6932;51.438;5.470;2023-03-23T03:31:49;3.47;;;2.40;;
13720;SDS011;6932;51.438;5.470;2023-03-23T03:34:20;3.97;;;2.37;;
13720;SDS011;6932;51.438;5.470;2023-03-23T03:36:49;4.10;;;2.50;;
13720;SDS011;6932;51.438;5.470;2023-03-23T03:39:19;3.07;;;2.40;;
13720;SDS011;6932;51.438;5.470;2023-03-23T03:41:47;3.43;;;2.40;;
13720;SDS011;6932;51.438;5.470;2023-03-23T03:44:13;4.33;;;2.30;;
13720;SDS011;6932;51.438;5.470;2023-03-23T03:46:40;4.37;;;2.27;;
13720;SDS011;6932;51.438;5.470;2023-03-23T03:49:06;3.03;;;2.03;;
13720;SDS011;6932;51.438;5.470;2023-03-23T03:51:35;2.97;;;2.00;;
13720;SDS011;6932;51.438;5.470;2023-03-23T03:54:01;3.50;;;2.00;;
13720;SDS011;6932;51.438;5.470;2023-03-23T03:56:27;5.00;;;2.13;;
13720;SDS011;6932;51.438;5.470;2023-03-23T03:58:53;3.40;;;2.00;;
13720;SDS011;6932;51.438;5.470;2023-03-23T04:01:22;4.03;;;2.13;;
13720;SDS011;6932;51.438;5.470;2023-03-23T04:03:49;3.83;;;2.00;;
13720;SDS011;6932;51.438;5.470;2023-03-23T04:06:16;3.87;;;1.77;;
13720;SDS011;6932;51.438;5.470;2023-03-23T04:08:43;3.10;;;1.80;;
13720;SDS011;6932;51.438;5.470;2023-03-23T04:11:11;3.77;;;1.80;;
13720;SDS011;6932;51.438;5.470;2023-03-23T04:13:39;2.93;;;1.53;;
13720;SDS011;6932;51.438;5.470;2023-03-23T04:16:06;4.73;;;1.70;;
13720;SDS011;6932;51.438;5.470;2023-03-23T04:18:33;3.80;;;1.60;;
13720;SDS011;6932;51.438;5.470;2023-03-23T04:20:59;5.30;;;1.67;;
13720;SDS011;6932;51.438;5.470;2023-03-23T04:23:28;6.33;;;1.70;;
13720;SDS011;6932;51.438;5.470;2023-03-23T04:25:58;3.73;;;1.63;;
13720;SDS011;6932;51.438;5.470;2023-03-23T04:28:24;4.10;;;1.50;;
13720;SDS011;6932;51.438;5.470;2023-03-23T04:30:53;4.53;;;1.67;;
13720;SDS011;6932;51.438;5.470;2023-03-23T04:33:20;5.23;;;2.00;;
13720;SDS011;6932;51.438;5.470;2023-03-23T04:35:50;3.27;;;1.50;;
13720;SDS011;6932;51.438;5.470;2023-03-23T04:38:18;3.80;;;1.40;;
13720;SDS011;6932;51.438;5.470;2023-03-23T04:40:46;4.57;;;1.70;;
13720;SDS011;6932;51.438;5.470;2023-03-23T04:43:16;5.63;;;1.60;;
13720;SDS011;6932;51.438;5.470;2023-03-23T04:45:52;4.00;;;1.70;;
13720;SDS011;6932;51.438;5.470;2023-03-23T04:48:21;5.90;;;1.77;;
13720;SDS011;6932;51.438;5.470;2023-03-23T04:50:52;2.80;;;1.50;;
13720;SDS011;6932;51.438;5.470;2023-03-23T04:53:19;4.73;;;1.60;;
13720;SDS011;6932;51.438;5.470;2023-03-23T04:55:46;3.63;;;1.40;;
13720;SDS011;6932;51.438;5.470;2023-03-23T04:58:12;3.77;;;1.77;;
13720;SDS011;6932;51.438;5.470;2023-03-23T05:00:40;3.53;;;1.37;;
13720;SDS011;6932;51.438;5.470;2023-03-23T05:03:14;6.27;;;1.60;;
13720;SDS011;6932;51.438;5.470;2023-03-23T05:05:44;4.90;;;1.67;;
13720;SDS011;6932;51.438;5.470;2023-03-23T05:08:12;5.33;;;1.60;;
13720;SDS011;6932;51.438;5.470;2023-03-23T05:10:39;3.10;;;1.70;;
13720;SDS011;6932;51.438;5.470;2023-03-23T05:13:05;5.03;;;1.70;;
13720;SDS011;6932;51.438;5.470;2023-03-23T05:15:31;4.97;;;1.60;;
13720;SDS011;6932;51.438;5.470;2023-03-23T05:17:56;4.00;;;1.50;;
13720;SDS011;6932;51.438;5.470;2023-03-23T05:20:22;4.53;;;1.60;;
13720;SDS011;6932;51.438;5.470;2023-03-23T05:22:49;4.00;;;1.70;;
13720;SDS011;6932;51.438;5.470;2023-03-23T05:25:16;2.00;;;1.33;;
13720;SDS011;6932;51.438;5.470;2023-03-23T05:27:46;4.53;;;1.70;;
13720;SDS011;6932;51.438;5.470;2023-03-23T05:30:17;5.37;;;2.03;;
13720;SDS011;6932;51.438;5.470;2023-03-23T05:32:46;3.73;;;1.60;;
13720;SDS011;6932;51.438;5.470;2023-03-23T05:35:15;4.33;;;1.90;;
13720;SDS011;6932;51.438;5.470;2023-03-23T05:37:43;3.90;;;1.83;;
13720;SDS011;6932;51.438;5.470;2023-03-23T05:40:10;4.40;;;1.73;;
13720;SDS011;6932;51.438;5.470;2023-03-23T05:42:37;3.33;;;1.77;;
13720;SDS011;6932;51.438;5.470;2023-03-23T05:45:08;4.30;;;1.70;;
13720;SDS011;6932;51.438;5.470;2023-03-23T08:27:21;3.47;;;1.00;;
13720;SDS011;6932;51.438;5.470;2023-03-23T08:29:49;1.57;;;0.90;;
13720;SDS011;6932;51.438;5.470;2023-03-23T08:32:15;2.47;;;1.00;;
13720;SDS011;6932;51.438;5.470;2023-03-23T08:34:41;1.63;;;0.83;;
13720;SDS011;6932;51.438;5.470;2023-03-23T08:37:08;2.43;;;1.00;;
13720;SDS011;6932;51.438;5.470;2023-03-23T08:39:34;3.07;;;1.17;;
13720;SDS011;6932;51.438;5.470;2023-03-23T08:42:00;1.57;;;1.10;;
13720;SDS011;6932;51.438;5.470;2023-03-23T08:44:26;2.17;;;0.93;;
13720;SDS011;6932;51.438;5.470;2023-03-23T08:46:52;1.60;;;1.00;;
13720;SDS011;6932;51.438;5.470;2023-03-23T08:49:21;1.77;;;0.90;;
13720;SDS011;6932;51.438;5.470;2023-03-23T08:51:49;2.83;;;1.10;;
13720;SDS011;6932;51.438;5.470;2023-03-23T08:54:14;4.07;;;1.20;;
13720;SDS011;6932;51.438;5.470;2023-03-23T08:56:42;1.63;;;0.80;;
13720;SDS011;6932;51.438;5.470;2023-03-23T08:59:08;1.33;;;0.80;;
13720;SDS011;6932;51.438;5.470;2023-03-23T09:01:35;2.07;;;0.77;;
13720;SDS011;6932;51.438;5.470;2023-03-23T09:04:00;1.20;;;0.83;;
13720;SDS011;6932;51.438;5.470;2023-03-23T09:06:26;1.20;;;0.73;;
13720;SDS011;6932;51.438;5.470;2023-03-23T09:08:53;2.10;;;0.90;;
13720;SDS011;6932;51.438;5.470;2023-03-23T09:11:20;3.03;;;0.80;;
13720;SDS011;6932;51.438;5.470;2023-03-23T09:13:47;2.70;;;0.70;;
13720;SDS011;6932;51.438;5.470;2023-03-23T09:16:13;2.43;;;0.90;;
13720;SDS011;6932;51.438;5.470;2023-03-23T09:18:39;2.47;;;0.70;;
13720;SDS011;6932;51.438;5.470;2023-03-23T09:21:05;2.27;;;0.70;;
13720;SDS011;6932;51.438;5.470;2023-03-23T09:23:31;1.77;;;0.70;;
13720;SDS011;6932;51.438;5.470;2023-03-23T09:25:59;1.77;;;0.80;;
13720;SDS011;6932;51.438;5.470;2023-03-23T09:28:27;2.57;;;0.83;;
13720;SDS011;6932;51.438;5.470;2023-03-23T09:30:54;2.93;;;0.90;;
13720;SDS011;6932;51.438;5.470;2023-03-23T09:33:24;1.60;;;0.80;;
13720;SDS011;6932;51.438;5.470;2023-03-23T09:35:50;1.50;;;0.80;;
13720;SDS011;6932;51.438;5.470;2023-03-23T09:38:17;1.47;;;0.80;;
13720;SDS011;6932;51.438;5.470;2023-03-23T09:49:10;1.67;;;0.70;;
13720;SDS011;6932;51.438;5.470;2023-03-23T09:56:57;1.57;;;0.77;;
13720;SDS011;6932;51.438;5.470;2023-03-23T10:02:34;1.67;;;0.90;;
13720;SDS011;6932;51.438;5.470;2023-03-23T10:07:59;3.13;;;1.10;;
13720;SDS011;6932;51.438;5.470;2023-03-23T10:11:01;1.17;;;0.80;;
13720;SDS011;6932;51.438;5.470;2023-03-23T13:24:05;5.27;;;1.70;;
13720;SDS011;6932;51.438;5.470;2023-03-23T13:26:38;4.70;;;2.00;;
13720;SDS011;6932;51.438;5.470;2023-03-23T13:31:44;3.87;;;1.83;;
13720;SDS011;6932;51.438;5.470;2023-03-23T13:36:42;6.80;;;1.93;;
13720;SDS011;6932;51.438;5.470;2023-03-23T13:39:21;5.30;;;1.80;;
13720;SDS011;6932;51.438;5.470;2023-03-23T13:42:17;4.67;;;1.80;;
13720;SDS011;6932;51.438;5.470;2023-03-23T14:06:34;3.93;;;1.87;;
13720;SDS011;6932;51.438;5.470;2023-03-23T14:09:43;7.33;;;2.37;;
13720;SDS011;6932;51.438;5.470;2023-03-23T14:12:03;5.37;;;2.10;;
13720;SDS011;6932;51.438;5.470;2023-03-23T14:17:13;6.30;;;2.00;;
13720;SDS011;6932;51.438;5.470;2023-03-23T14:19:49;5.33;;;2.10;;
13720;SDS011;6932;51.438;5.470;2023-03-23T14:22:27;3.70;;;2.10;;
13720;SDS011;6932;51.438;5.470;2023-03-23T14:42:34;4.30;;;1.87;;
13720;SDS011;6932;51.438;5.470;2023-03-23T14:45:02;4.17;;;1.80;;
13720;SDS011;6932;51.438;5.470;2023-03-23T14:47:32;5.47;;;1.90;;
13720;SDS011;6932;51.438;5.470;2023-03-23T14:50:06;3.37;;;1.80;;
13720;SDS011;6932;51.438;5.470;2023-03-23T14:52:47;8.30;;;2.10;;
13720;SDS011;6932;51.438;5.470;2023-03-23T14:57:46;5.40;;;2.07;;
13720;SDS011;6932;51.438;5.470;2023-03-23T15:00:25;5.33;;;1.90;;
13720;SDS011;6932;51.438;5.470;2023-03-23T15:06:50;5.03;;;1.97;;
13720;SDS011;6932;51.438;5.470;2023-03-23T15:09:25;6.90;;;2.00;;
13720;SDS011;6932;51.438;5.470;2023-03-23T15:11:55;8.23;;;2.07;;
13720;SDS011;6932;51.438;5.470;2023-03-23T15:14:27;4.23;;;1.80;;
13720;SDS011;6932;51.438;5.470;2023-03-23T15:17:10;4.53;;;1.90;;
13720;SDS011;6932;51.438;5.470;2023-03-23T15:19:45;5.53;;;2.20;;
13720;SDS011;6932;51.438;5.470;2023-03-23T15:22:25;4.03;;;1.73;;
13720;SDS011;6932;51.438;5.470;2023-03-23T15:36:09;4.97;;;2.00;;
13720;SDS011;6932;51.438;5.470;2023-03-23T15:38:43;5.07;;;2.20;;
13720;SDS011;6932;51.438;5.470;2023-03-23T15:41:23;4.73;;;2.20;;
13720;SDS011;6932;51.438;5.470;2023-03-23T15:43:54;8.47;;;2.17;;
13720;SDS011;6932;51.438;5.470;2023-03-23T15:46:24;7.53;;;2.13;;
13720;SDS011;6932;51.438;5.470;2023-03-23T15:48:53;7.20;;;2.10;;
13720;SDS011;6932;51.438;5.470;2023-03-23T15:51:35;6.10;;;2.23;;
13720;SDS011;6932;51.438;5.470;2023-03-23T15:54:02;6.03;;;2.10;;
13720;SDS011;6932;51.438;5.470;2023-03-23T16:20:18;5.93;;;2.10;;
13720;SDS011;6932;51.438;5.470;2023-03-23T16:22:48;5.53;;;2.10;;
13720;SDS011;6932;51.438;5.470;2023-03-23T16:25:16;5.13;;;2.33;;
13720;SDS011;6932;51.438;5.470;2023-03-23T16:27:43;6.73;;;2.27;;
13720;SDS011;6932;51.438;5.470;2023-03-23T16:30:22;7.37;;;2.47;;
13720;SDS011;6932;51.438;5.470;2023-03-23T16:32:51;4.83;;;2.03;;
13720;SDS011;6932;51.438;5.470;2023-03-23T16:35:17;6.00;;;2.00;;
13720;SDS011;6932;51.438;5.470;2023-03-23T16:37:45;7.37;;;2.33;;
13720;SDS011;6932;51.438;5.470;2023-03-23T16:40:13;5.30;;;2.30;;
13720;SDS011;6932;51.438;5.470;2023-03-23T16:42:41;5.33;;;2.67;;
13720;SDS011;6932;51.438;5.470;2023-03-23T16:45:07;6.63;;;2.47;;
13720;SDS011;6932;51.438;5.470;2023-03-23T16:47:35;8.03;;;2.40;;
13720;SDS011;6932;51.438;5.470;2023-03-23T16:50:02;6.33;;;2.20;;
13720;SDS011;6932;51.438;5.470;2023-03-23T16:52:30;5.30;;;2.13;;
13720;SDS011;6932;51.438;5.470;2023-03-23T16:54:57;7.93;;;2.70;;
13720;SDS011;6932;51.438;5.470;2023-03-23T16:57:23;5.03;;;2.10;;
13720;SDS011;6932;51.438;5.470;2023-03-23T16:59:49;6.07;;;2.40;;
13720;SDS011;6932;51.438;5.470;2023-03-23T17:02:15;7.13;;;2.43;;
13720;SDS011;6932;51.438;5.470;2023-03-23T17:04:42;6.17;;;2.20;;
13720;SDS011;6932;51.438;5.470;2023-03-23T17:07:10;7.73;;;2.47;;
13720;SDS011;6932;51.438;5.470;2023-03-23T17:09:38;5.50;;;2.43;;
13720;SDS011;6932;51.438;5.470;2023-03-23T17:12:04;6.90;;;2.50;;
13720;SDS011;6932;51.438;5.470;2023-03-23T17:14:30;5.67;;;2.30;;
13720;SDS011;6932;51.438;5.470;2023-03-23T17:20:46;6.40;;;2.30;;
13720;SDS011;6932;51.438;5.470;2023-03-23T17:23:13;6.90;;;2.57;;
13720;SDS011;6932;51.438;5.470;2023-03-23T17:25:42;6.67;;;2.30;;
13720;SDS011;6932;51.438;5.470;2023-03-23T17:28:10;6.10;;;2.40;;
13720;SDS011;6932;51.438;5.470;2023-03-23T17:30:38;7.33;;;2.70;;
13720;SDS011;6932;51.438;5.470;2023-03-23T17:33:09;7.60;;;2.70;;
13720;SDS011;6932;51.438;5.470;2023-03-23T17:35:36;7.57;;;2.20;;
13720;SDS011;6932;51.438;5.470;2023-03-23T17:38:02;5.97;;;2.20;;
13720;SDS011;6932;51.438;5.470;2023-03-23T17:55:21;4.90;;;2.03;;
13720;SDS011;6932;51.438;5.470;2023-03-23T17:57:47;4.20;;;1.90;;
13720;SDS011;6932;51.438;5.470;2023-03-23T18:00:13;7.53;;;2.40;;
13720;SDS011;6932;51.438;5.470;2023-03-23T18:02:39;5.10;;;2.30;;
13720;SDS011;6932;51.438;5.470;2023-03-23T18:05:05;5.73;;;2.30;;
13720;SDS011;6932;51.438;5.470;2023-03-23T18:07:33;5.80;;;2.10;;
13720;SDS011;6932;51.438;5.470;2023-03-23T18:09:59;5.53;;;1.93;;
13720;SDS011;6932;51.438;5.470;2023-03-23T18:12:25;4.43;;;2.10;;
13720;SDS011;6932;51.438;5.470;2023-03-23T18:22:13;4.57;;;2.00;;
13720;SDS011;6932;51.438;5.470;2023-03-23T18:24:39;6.60;;;2.30;;
13720;SDS011;6932;51.438;5.470;2023-03-23T18:27:04;6.73;;;2.20;;
13720;SDS011;6932;51.438;5.470;2023-03-23T18:29:30;6.07;;;2.27;;
13720;SDS011;6932;51.438;5.470;2023-03-23T18:31:56;4.63;;;2.10;;
13720;SDS011;6932;51.438;5.470;2023-03-23T18:34:21;6.40;;;2.60;;
13720;SDS011;6932;51.438;5.470;2023-03-23T18:36:48;5.63;;;2.07;;
13720;SDS011;6932;51.438;5.470;2023-03-23T18:39:14;4.47;;;2.17;;
13720;SDS011;6932;51.438;5.470;2023-03-23T18:49:07;4.00;;;2.00;;
13720;SDS011;6932;51.438;5.470;2023-03-23T18:51:33;4.77;;;2.20;;
13720;SDS011;6932;51.438;5.470;2023-03-23T18:54:01;5.70;;;2.00;;
13720;SDS011;6932;51.438;5.470;2023-03-23T18:56:27;7.17;;;2.20;;
13720;SDS011;6932;51.438;5.470;2023-03-23T18:58:53;5.80;;;2.40;;
13720;SDS011;6932;51.438;5.470;2023-03-23T19:01:19;6.40;;;2.50;;
13720;SDS011;6932;51.438;5.470;2023-03-23T19:03:45;6.43;;;2.40;;
13720;SDS011;6932;51.438;5.470;2023-03-23T19:10:01;5.10;;;2.40;;
13720;SDS011;6932;51.438;5.470;2023-03-23T19:12:28;5.10;;;2.33;;
13720;SDS011;6932;51.438;5.470;2023-03-23T19:14:53;7.60;;;2.27;;
13720;SDS011;6932;51.438;5.470;2023-03-23T19:17:19;5.70;;;2.30;;
13720;SDS011;6932;51.438;5.470;2023-03-23T19:19:45;5.93;;;2.10;;
13720;SDS011;6932;51.438;5.470;2023-03-23T19:22:11;6.63;;;2.10;;
13720;SDS011;6932;51.438;5.470;2023-03-23T19:24:38;7.40;;;2.37;;
13720;SDS011;6932;51.438;5.470;2023-03-23T19:27:03;4.53;;;2.00;;
13720;SDS011;6932;51.438;5.470;2023-03-23T19:29:32;6.00;;;2.17;;
13720;SDS011;6932;51.438;5.470;2023-03-23T19:35:48;5.50;;;2.10;;
13720;SDS011;6932;51.438;5.470;2023-03-23T19:38:19;6.03;;;2.40;;
13720;SDS011;6932;51.438;5.470;2023-03-23T19:40:53;5.30;;;2.27;;
13720;SDS011;6932;51.438;5.470;2023-03-23T19:43:25;7.30;;;2.43;;
13720;SDS011;6932;51.438;5.470;2023-03-23T19:45:51;4.93;;;2.17;;
13720;SDS011;6932;51.438;5.470;2023-03-23T19:48:17;5.53;;;2.17;;
13720;SDS011;6932;51.438;5.470;2023-03-23T19:50:44;5.60;;;2.27;;
13720;SDS011;6932;51.438;5.470;2023-03-23T19:53:11;3.97;;;2.00;;
13720;SDS011;6932;51.438;5.470;2023-03-23T20:10:31;4.50;;;2.03;;
13720;SDS011;6932;51.438;5.470;2023-03-23T20:13:00;5.20;;;2.00;;
13720;SDS011;6932;51.438;5.470;2023-03-23T20:15:28;6.60;;;2.10;;
13720;SDS011;6932;51.438;5.470;2023-03-23T20:17:55;5.20;;;2.20;;
13720;SDS011;6932;51.438;5.470;2023-03-23T20:20:21;5.07;;;1.90;;
13720;SDS011;6932;51.438;5.470;2023-03-23T20:22:47;4.17;;;2.07;;
13720;SDS011;6932;51.438;5.470;2023-03-23T20:25:14;4.27;;;2.00;;
13720;SDS011;6932;51.438;5.470;2023-03-23T20:27:40;4.37;;;2.27;;
13720;SDS011;6932;51.438;5.470;2023-03-23T20:33:58;4.37;;;2.10;;
13720;SDS011;6932;51.438;5.470;2023-03-23T20:36:39;5.00;;;2.33;;
13720;SDS011;6932;51.438;5.470;2023-03-23T20:39:12;5.30;;;2.03;;
13720;SDS011;6932;51.438;5.470;2023-03-23T20:41:45;4.27;;;1.80;;
13720;SDS011;6932;51.438;5.470;2023-03-23T20:44:14;5.67;;;1.97;;
13720;SDS011;6932;51.438;5.470;2023-03-23T20:46:42;3.43;;;2.00;;
13720;SDS011;6932;51.438;5.470;2023-03-23T20:49:10;4.40;;;2.00;;
13720;SDS011;6932;51.438;5.470;2023-03-23T20:51:37;6.47;;;2.10;;
13720;SDS011;6932;51.438;5.470;2023-03-23T20:57:53;4.67;;;2.10;;
13720;SDS011;6932;51.438;5.470;2023-03-23T21:00:19;3.17;;;1.83;;
13720;SDS011;6932;51.438;5.470;2023-03-23T21:02:45;4.43;;;1.70;;
13720;SDS011;6932;51.438;5.470;2023-03-23T21:05:13;3.07;;;1.80;;
13720;SDS011;6932;51.438;5.470;2023-03-23T21:07:39;5.70;;;2.00;;
13720;SDS011;6932;51.438;5.470;2023-03-23T21:10:06;4.20;;;2.00;;
13720;SDS011;6932;51.438;5.470;2023-03-23T21:12:32;3.00;;;1.80;;
13720;SDS011;6932;51.438;5.470;2023-03-23T21:14:58;3.53;;;1.90;;
13720;SDS011;6932;51.438;5.470;2023-03-23T21:24:52;4.17;;;2.00;;
13720;SDS011;6932;51.438;5.470;2023-03-23T21:27:18;3.80;;;1.90;;
13720;SDS011;6932;51.438;5.470;2023-03-23T21:29:44;3.77;;;2.07;;
13720;SDS011;6932;51.438;5.470;2023-03-23T21:32:10;4.73;;;1.87;;
13720;SDS011;6932;51.438;5.470;2023-03-23T21:34:36;5.17;;;1.80;;
13720;SDS011;6932;51.438;5.470;2023-03-23T21:37:02;5.63;;;1.97;;
13720;SDS011;6932;51.438;5.470;2023-03-23T21:39:28;2.73;;;1.80;;
13720;SDS011;6932;51.438;5.470;2023-03-23T21:45:35;5.70;;;1.77;;
13720;SDS011;6932;51.438;5.470;2023-03-23T21:48:02;5.37;;;1.77;;
13720;SDS011;6932;51.438;5.470;2023-03-23T21:50:31;3.13;;;1.80;;
13720;SDS011;6932;51.438;5.470;2023-03-23T21:53:02;3.47;;;1.77;;
13720;SDS011;6932;51.438;5.470;2023-03-23T21:55:29;3.57;;;1.67;;
13720;SDS011;6932;51.438;5.470;2023-03-23T21:57:57;3.43;;;1.67;;
13720;SDS011;6932;51.438;5.470;2023-03-23T22:11:36;4.27;;;1.80;;
13720;SDS011;6932;51.438;5.470;2023-03-23T22:14:03;3.37;;;1.70;;
13720;SDS011;6932;51.438;5.470;2023-03-23T22:16:30;3.50;;;1.60;;
13720;SDS011;6932;51.438;5.470;2023-03-23T22:18:56;2.13;;;1.50;;
13720;SDS011;6932;51.438;5.470;2023-03-23T22:21:23;5.30;;;1.63;;
13720;SDS011;6932;51.438;5.470;2023-03-23T22:23:50;3.37;;;1.60;;
13720;SDS011;6932;51.438;5.470;2023-03-23T22:26:18;3.93;;;1.80;;
13720;SDS011;6932;51.438;5.470;2023-03-23T22:28:45;3.20;;;1.60;;
13720;SDS011;6932;51.438;5.470;2023-03-23T22:38:45;5.27;;;2.27;;
13720;SDS011;6932;51.438;5.470;2023-03-23T22:41:45;3.77;;;2.00;;
13720;SDS011;6932;51.438;5.470;2023-03-23T22:44:15;3.17;;;1.80;;
13720;SDS011;6932;51.438;5.470;2023-03-23T22:46:45;4.73;;;1.90;;
13720;SDS011;6932;51.438;5.470;2023-03-23T22:49:11;3.90;;;1.70;;
13720;SDS011;6932;51.438;5.470;2023-03-23T22:51:38;4.13;;;1.60;;
13720;SDS011;6932;51.438;5.470;2023-03-23T22:54:05;2.83;;;1.60;;
13720;SDS011;6932;51.438;5.470;2023-03-23T22:56:31;4.07;;;1.70;;
13720;SDS011;6932;51.438;5.470;2023-03-23T22:58:57;4.50;;;1.67;;
13720;SDS011;6932;51.438;5.470;2023-03-23T23:01:24;3.30;;;1.70;;
13720;SDS011;6932;51.438;5.470;2023-03-23T23:03:51;3.10;;;1.60;;
13720;SDS011;6932;51.438;5.470;2023-03-23T23:06:18;4.03;;;1.70;;
13720;SDS011;6932;51.438;5.470;2023-03-23T23:08:45;2.43;;;1.50;;
13720;SDS011;6932;51.438;5.470;2023-03-23T23:11:13;2.17;;;1.57;;
13720;SDS011;6932;51.438;5.470;2023-03-23T23:13:42;5.30;;;1.87;;
13720;SDS011;6932;51.438;5.470;2023-03-23T23:30:55;2.50;;;1.60;;
13720;SDS011;6932;51.438;5.470;2023-03-23T23:33:21;3.27;;;1.60;;
13720;SDS011;6932;51.438;5.470;2023-03-23T23:35:47;3.73;;;1.60;;
13720;SDS011;6932;51.438;5.470;2023-03-23T23:38:14;4.53;;;1.87;;
13720;SDS011;6932;51.438;5.470;2023-03-23T23:40:41;3.47;;;1.90;;
13720;SDS011;6932;51.438;5.470;2023-03-23T23:43:12;2.73;;;1.60;;
13720;SDS011;6932;51.438;5.470;2023-03-23T23:49:30;3.57;;;1.60;;
13720;SDS011;6932;51.438;5.470;2023-03-23T23:51:58;2.33;;;1.70;;
13720;SDS011;6932;51.438;5.470;2023-03-23T23:54:24;3.13;;;1.83;;
13720;SDS011;6932;51.438;5.470;2023-03-23T23:56:53;3.63;;;1.80;;
13720;SDS011;6932;51.438;5.470;2023-03-23T23:59:23;2.57;;;1.70;;
